KMIW/MIW METAR and TAF weather

Enter ICAO airport designator
Station Type Date Time Source
KMIW METAR 2019/06/18 16:53 UTC NOAA

KMIW 181653Z AUTO 32006KT 6SM -RA BR OVC060 19/17 A2997 RMK AO2 RAB18 SLP143 P0001 T01890172


Station Type Date Time Source
KMIW Decoded METAR 2019/06/18 16:53 UTC NOAA

MARSHALLTOWN MUNICIPAL AIRPORT , IA, United States (KMIW) 42-07N 92-55W 296M
Jun 18, 2019 - 12:53 PM EDT / 2019.06.18 1653 UTC
Wind: from the NW (320 degrees) at 7 MPH (6 KT):0
Visibility: 6 mile(s):0
Sky conditions: overcast
Weather: light rain; mist
Precipitation last hour: 0.01 inches
Temperature: 66.0 F (18.9 C)
Dew Point: 63.0 F (17.2 C)
Relative Humidity: 89%
Pressure (altimeter): 29.97 in. Hg (1014 hPa)
ob: KMIW 181653Z AUTO 32006KT 6SM -RA BR OVC060 19/17 A2997 RMK AO2 RAB18 SLP143 P0001 T01890172
cycle: 17

Station Type Date Time Source
KMIW TAF UTC NOAA

Error!

Example: see airport list